createdAt,value
2018-03-11T00:04:58.937Z,14.67
2018-03-11T00:10:00.526Z,14.00
2018-03-11T00:15:01.920Z,14.40
2018-03-11T00:20:03.338Z,19.40
2018-03-11T00:25:04.753Z,15.23
2018-03-11T00:30:06.888Z,14.40
2018-03-11T00:35:08.312Z,15.40
2018-03-11T00:40:09.719Z,15.13
2018-03-11T00:45:11.134Z,13.33
2018-03-11T00:50:12.575Z,14.40
2018-03-11T00:55:14.117Z,14.60
2018-03-11T01:00:15.635Z,16.63
2018-03-11T01:05:17.051Z,17.53
2018-03-11T01:10:18.453Z,17.37
2018-03-11T01:15:19.791Z,17.20
2018-03-11T01:20:21.275Z,16.17
2018-03-11T01:25:22.741Z,16.10
2018-03-11T01:30:24.165Z,15.47
2018-03-11T01:35:25.558Z,14.87
2018-03-11T01:40:27.044Z,15.00
2018-03-11T01:45:28.497Z,15.80
2018-03-11T01:50:29.888Z,15.13
2018-03-11T01:55:31.296Z,15.20
2018-03-11T02:00:32.735Z,14.30
2018-03-11T02:05:34.169Z,15.73
2018-03-11T02:10:35.546Z,15.80
2018-03-11T02:15:36.959Z,15.10
2018-03-11T02:20:38.348Z,15.20
2018-03-11T02:25:39.728Z,14.53
2018-03-11T02:30:41.104Z,14.87
2018-03-11T02:35:42.544Z,15.70
2018-03-11T02:40:43.934Z,16.47
2018-03-11T02:45:46.309Z,17.00
2018-03-11T02:50:48.165Z,16.87
2018-03-11T02:55:49.529Z,17.33
2018-03-11T03:00:50.953Z,17.83
2018-03-11T03:05:52.396Z,17.30
2018-03-11T03:10:53.985Z,17.93
2018-03-11T03:15:56.470Z,17.83
2018-03-11T03:20:57.865Z,18.67
2018-03-11T03:26:00.755Z,19.23
2018-03-11T03:31:05.178Z,19.50
2018-03-11T03:36:06.797Z,18.90
2018-03-11T03:41:08.182Z,18.97
2018-03-11T03:46:09.606Z,18.40
2018-03-11T03:51:11.743Z,19.10
2018-03-11T03:56:13.135Z,19.70
2018-03-11T04:01:15.521Z,19.17
2018-03-11T04:06:17.128Z,20.80
2018-03-11T04:11:18.709Z,21.03
2018-03-11T04:16:20.323Z,19.83
2018-03-11T04:21:21.742Z,22.10
2018-03-11T04:26:24.076Z,21.83
2018-03-11T04:31:25.484Z,19.17
2018-03-11T04:36:26.859Z,17.90
2018-03-11T04:41:28.262Z,20.33
2018-03-11T04:46:29.679Z,18.50
2018-03-11T04:51:32.073Z,17.53
2018-03-11T04:56:33.626Z,18.60
2018-03-11T05:01:35.018Z,18.20
2018-03-11T05:06:36.396Z,18.57
2018-03-11T05:11:37.749Z,19.30
2018-03-11T05:16:39.916Z,19.33
2018-03-11T05:21:42.156Z,20.70
2018-03-11T05:26:44.347Z,19.47
2018-03-11T05:31:45.787Z,19.90
2018-03-11T05:36:47.146Z,18.20
2018-03-11T05:41:48.512Z,18.50
2018-03-11T05:46:49.941Z,19.60
2018-03-11T05:51:52.111Z,20.00
2018-03-11T05:56:53.514Z,15.40
2018-03-11T06:01:54.898Z,14.27
2018-03-11T06:06:56.295Z,17.80
2018-03-11T06:11:57.717Z,18.37
2018-03-11T06:17:00.305Z,18.57
2018-03-11T06:22:01.728Z,18.30
2018-03-11T06:27:03.200Z,19.20
2018-03-11T06:32:05.332Z,19.93
2018-03-11T06:37:06.819Z,19.53
2018-03-11T06:42:08.164Z,19.63
2018-03-11T06:47:09.556Z,18.90
2018-03-11T06:52:11.018Z,19.20
2018-03-11T06:57:12.547Z,19.40
2018-03-11T07:02:13.980Z,19.73
2018-03-11T07:07:15.462Z,18.40
2018-03-11T07:12:16.944Z,17.73
2018-03-11T07:17:18.359Z,16.70
2018-03-11T07:22:20.694Z,19.00
2018-03-11T07:27:23.162Z,18.67
2018-03-11T07:32:25.441Z,18.23
2018-03-11T07:37:26.936Z,17.87
2018-03-11T07:42:28.449Z,17.70
2018-03-11T07:47:29.849Z,17.43
2018-03-11T07:52:31.524Z,16.77
2018-03-11T07:57:32.970Z,15.57
2018-03-11T08:02:34.462Z,19.07
2018-03-11T08:07:35.916Z,18.30
2018-03-11T08:12:37.366Z,18.77
2018-03-11T08:17:38.740Z,17.90
2018-03-11T08:22:40.146Z,16.97
2018-03-11T08:27:41.517Z,16.80
2018-03-11T08:32:42.873Z,14.60
2018-03-11T08:37:44.312Z,17.47
2018-03-11T08:42:45.807Z,15.93
2018-03-11T08:47:47.417Z,13.87
2018-03-11T08:52:48.831Z,12.60
2018-03-11T08:57:50.303Z,13.30
2018-03-11T09:02:51.779Z,10.50
2018-03-11T09:07:53.193Z,10.33
2018-03-11T09:12:54.521Z,9.20
2018-03-11T09:17:55.988Z,11.90
2018-03-11T09:22:57.342Z,10.13
2018-03-11T09:27:59.225Z,12.00
2018-03-11T09:33:00.738Z,11.30
2018-03-11T09:38:02.258Z,10.70
2018-03-11T09:43:03.680Z,10.27
2018-03-11T09:48:05.103Z,9.80
2018-03-11T09:53:06.558Z,10.80
2018-03-11T09:58:08.192Z,10.40
2018-03-11T10:03:09.561Z,12.30
2018-03-11T10:08:10.997Z,9.83
2018-03-11T10:13:12.395Z,10.40
2018-03-11T10:18:13.771Z,9.90
2018-03-11T10:23:15.207Z,9.97
2018-03-11T10:28:16.660Z,10.43
2018-03-11T10:33:18.084Z,8.80
2018-03-11T10:38:19.485Z,10.00
2018-03-11T10:43:20.921Z,9.33
2018-03-11T10:48:23.043Z,8.47
2018-03-11T10:53:24.488Z,8.43
2018-03-11T10:58:25.923Z,9.30
2018-03-11T11:03:28.136Z,8.70
2018-03-11T11:08:29.677Z,9.17
2018-03-11T11:13:31.077Z,9.67
2018-03-11T11:18:32.434Z,8.93
2018-03-11T11:23:33.832Z,8.80
2018-03-11T11:28:35.226Z,9.17
2018-03-11T11:33:36.593Z,9.40
2018-03-11T11:38:37.975Z,9.17
2018-03-11T11:43:39.458Z,9.30
2018-03-11T11:48:40.876Z,9.50
2018-03-11T11:53:42.250Z,10.77
2018-03-11T11:58:43.667Z,10.47
2018-03-11T12:03:45.252Z,10.23
2018-03-11T12:08:46.658Z,10.50
2018-03-11T12:13:48.125Z,16.87
2018-03-11T12:18:49.515Z,11.50
2018-03-11T12:23:50.939Z,11.77
2018-03-11T12:28:52.377Z,15.67
2018-03-11T12:33:53.793Z,9.03
2018-03-11T12:38:55.160Z,8.77
2018-03-11T12:43:56.569Z,8.93
2018-03-11T12:48:57.999Z,15.40
2018-03-11T12:54:06.444Z,8.60
2018-03-11T12:59:07.887Z,8.70
2018-03-11T13:04:09.325Z,9.83
2018-03-11T13:09:10.710Z,9.60
2018-03-11T13:14:12.067Z,11.30
2018-03-11T13:19:13.452Z,10.70
2018-03-11T13:24:14.864Z,9.43
2018-03-11T13:29:16.299Z,9.43
2018-03-11T13:34:27.450Z,11.17
2018-03-11T13:39:47.115Z,10.80
2018-03-11T13:45:07.140Z,9.90
2018-03-11T13:50:08.537Z,10.10
2018-03-11T13:55:10.207Z,10.20
2018-03-11T14:00:11.584Z,10.60
2018-03-11T14:05:12.967Z,7.73
2018-03-11T14:10:16.287Z,7.37
2018-03-11T14:15:18.439Z,6.63
2018-03-11T14:20:19.906Z,7.57
2018-03-11T14:25:22.177Z,6.33
2018-03-11T14:30:23.577Z,7.00
2018-03-11T14:35:25.004Z,7.17
2018-03-11T14:40:26.385Z,6.40
2018-03-11T14:45:27.752Z,6.70
2018-03-11T14:50:29.186Z,6.20
2018-03-11T14:55:30.582Z,5.40
2018-03-11T15:00:31.956Z,4.50
2018-03-11T15:05:33.443Z,2.90
2018-03-11T15:10:34.869Z,2.70
2018-03-11T15:15:36.301Z,2.50
2018-03-11T15:20:37.687Z,1.90
2018-03-11T15:25:39.072Z,2.27
2018-03-11T15:30:40.513Z,1.60
2018-03-11T15:35:41.961Z,1.80
2018-03-11T15:40:43.507Z,1.90
2018-03-11T15:45:44.896Z,2.10
2018-03-11T15:50:46.385Z,2.27
2018-03-11T15:55:48.089Z,2.37
2018-03-11T16:00:49.480Z,2.53
2018-03-11T16:05:51.033Z,2.40
2018-03-11T16:10:53.239Z,2.83
2018-03-11T16:15:55.427Z,3.70
2018-03-11T16:20:56.784Z,7.23
2018-03-11T16:25:58.173Z,3.77
2018-03-11T16:30:59.586Z,3.70
2018-03-11T16:36:01.169Z,2.90
2018-03-11T16:41:02.581Z,3.70
2018-03-11T16:46:04.228Z,4.00
2018-03-11T16:51:06.535Z,3.53
2018-03-11T16:56:07.959Z,3.83
2018-03-11T17:01:09.507Z,3.77
2018-03-11T17:06:11.763Z,4.00
2018-03-11T17:11:13.425Z,3.73
2018-03-11T17:16:14.892Z,3.63
2018-03-11T17:21:17.136Z,4.20
2018-03-11T17:26:18.864Z,4.40
2018-03-11T17:31:20.287Z,5.43
2018-03-11T17:36:21.772Z,4.70
2018-03-11T17:41:23.197Z,4.23
2018-03-11T17:46:25.323Z,6.27
2018-03-11T17:51:26.747Z,4.43
2018-03-11T17:56:28.145Z,5.77
2018-03-11T18:01:29.621Z,4.70
2018-03-11T18:06:32.561Z,3.57
2018-03-11T18:11:33.964Z,2.87
2018-03-11T18:16:35.442Z,3.77
2018-03-11T18:21:36.845Z,2.97
2018-03-11T18:26:38.329Z,3.30
2018-03-11T18:31:39.897Z,3.87
2018-03-11T18:36:41.444Z,3.47
2018-03-11T18:41:43.742Z,3.80
2018-03-11T18:46:45.136Z,3.50
2018-03-11T18:51:46.562Z,4.20
2018-03-11T18:56:48.799Z,3.43
2018-03-11T19:01:51.073Z,4.00
2018-03-11T19:06:52.980Z,4.07
2018-03-11T19:11:55.189Z,4.50
2018-03-11T19:16:56.939Z,6.10
2018-03-11T19:21:59.369Z,6.23
2018-03-11T19:27:00.808Z,5.67
2018-03-11T19:32:02.276Z,4.83
2018-03-11T19:37:03.767Z,5.17
2018-03-11T19:42:05.162Z,4.87
2018-03-11T19:47:07.481Z,4.73
2018-03-11T19:52:09.088Z,6.37
2018-03-11T19:57:11.465Z,5.77
2018-03-11T20:02:13.584Z,5.50
2018-03-11T20:07:15.040Z,6.00
2018-03-11T20:12:16.497Z,7.27
2018-03-11T20:17:17.998Z,6.83
2018-03-11T20:22:20.388Z,6.17
2018-03-11T20:27:21.830Z,7.30
2018-03-11T20:32:23.435Z,6.63
2018-03-11T20:37:24.810Z,5.93
2018-03-11T20:42:26.333Z,6.90
2018-03-11T20:47:27.774Z,6.13
2018-03-11T20:52:29.222Z,6.03
2018-03-11T20:57:30.610Z,6.70
2018-03-11T21:02:32.019Z,7.07
2018-03-11T21:07:33.524Z,7.00
2018-03-11T21:12:35.672Z,7.03
2018-03-11T21:17:37.126Z,6.60
2018-03-11T21:22:39.269Z,7.50
2018-03-11T21:27:40.697Z,6.73
2018-03-11T21:32:42.166Z,7.00
2018-03-11T21:37:43.924Z,6.40
2018-03-11T21:42:46.087Z,5.30
2018-03-11T21:47:47.573Z,6.40
2018-03-11T21:52:49.062Z,6.50
2018-03-11T21:57:50.428Z,6.90
2018-03-11T22:02:51.853Z,6.70
2018-03-11T22:07:56.331Z,6.50
2018-03-11T22:13:03.789Z,5.90
2018-03-11T22:18:06.211Z,7.13
2018-03-11T22:23:08.445Z,9.47
2018-03-11T22:28:09.856Z,7.30
2018-03-11T22:33:11.405Z,6.73
2018-03-11T22:38:13.651Z,6.67
2018-03-11T22:43:15.142Z,7.47
2018-03-11T22:48:16.590Z,7.27
2018-03-11T22:53:18.073Z,6.87
2018-03-11T22:58:22.363Z,8.30
2018-03-11T23:03:23.819Z,8.60
2018-03-11T23:08:27.824Z,8.50
2018-03-11T23:13:29.324Z,7.67
2018-03-11T23:18:31.540Z,8.47
2018-03-11T23:23:32.949Z,8.77
2018-03-11T23:28:34.398Z,8.40
2018-03-11T23:33:35.890Z,9.00
2018-03-11T23:38:39.008Z,7.63
2018-03-11T23:43:40.538Z,8.57
2018-03-11T23:48:42.819Z,7.57
2018-03-11T23:53:44.385Z,8.50
2018-03-11T23:58:45.811Z,10.30
